Wainuiomata, New Zealand
Current Conditions -  °F | °C
As of 7:00 AM on Friday 31 Oct 2014 (Local Time) from NZWN Reporting Station
Clear Clear  
Wind Chill: 57°   Ceiling: Unl
Heat Index: 57°   Visibility: 6mi
Dew Point: 46°   Wind: 20mph
Humidity: 67%   Direction: 340°NNW
Pressure: 29.71"   Gusts: NA
Location:  41.26°S, 174.95°E
Report Text: NZWN 301900Z AUTO 34017KT 9999 NCD 14/08 Q1006 NOSIG
Loading
Personal Weather Stations






























Interactive Weather Map
Tropical Storm Tracking
New forecast layout! Learn more

10-Day Weather Forecast

Advertisements
Track Severe Weather on mobile